sensor_id;sensor_type;location;lat;lon;timestamp;pressure;altitude;pressure_sealevel;temperature;humidity
13594;BME280;6449;47.666;9.160;2023-12-04T00:59:08;97132.47;;;-1.89;100.00
13594;BME280;6449;47.666;9.160;2023-12-04T01:25:51;97138.25;;;-2.17;100.00
13594;BME280;6449;47.666;9.160;2023-12-04T01:30:45;97142.81;;;-1.91;100.00
13594;BME280;6449;47.666;9.160;2023-12-04T01:35:38;97145.56;;;-2.00;100.00
13594;BME280;6449;47.666;9.160;2023-12-04T01:40:32;97136.00;;;-1.93;100.00
13594;BME280;6449;47.666;9.160;2023-12-04T01:50:32;97144.50;;;-2.30;100.00
13594;BME280;6449;47.666;9.160;2023-12-04T01:55:27;97144.59;;;-2.34;100.00
13594;BME280;6449;47.666;9.160;2023-12-04T02:00:21;97136.19;;;-2.41;100.00
13594;BME280;6449;47.666;9.160;2023-12-04T02:05:15;97128.06;;;-2.21;100.00
13594;BME280;6449;47.666;9.160;2023-12-04T02:10:11;97135.84;;;-2.26;100.00
13594;BME280;6449;47.666;9.160;2023-12-04T02:15:06;97126.22;;;-2.55;100.00
13594;BME280;6449;47.666;9.160;2023-12-04T02:20:01;97124.13;;;-2.79;100.00
13594;BME280;6449;47.666;9.160;2023-12-04T02:24:58;97120.63;;;-2.75;100.00
13594;BME280;6449;47.666;9.160;2023-12-04T02:29:56;97121.09;;;-2.98;100.00
13594;BME280;6449;47.666;9.160;2023-12-04T02:34:54;97115.84;;;-2.94;100.00
13594;BME280;6449;47.666;9.160;2023-12-04T02:39:48;97104.44;;;-3.24;100.00
13594;BME280;6449;47.666;9.160;2023-12-04T02:44:46;97096.81;;;-2.82;100.00
13594;BME280;6449;47.666;9.160;2023-12-04T02:49:39;97103.44;;;-2.72;100.00
13594;BME280;6449;47.666;9.160;2023-12-04T02:54:32;97098.44;;;-2.78;100.00
13594;BME280;6449;47.666;9.160;2023-12-04T02:59:26;97086.84;;;-2.54;100.00
13594;BME280;6449;47.666;9.160;2023-12-04T03:04:20;97081.19;;;-2.31;100.00
13594;BME280;6449;47.666;9.160;2023-12-04T03:09:14;97074.50;;;-1.99;100.00
13594;BME280;6449;47.666;9.160;2023-12-04T03:14:08;97074.81;;;-1.77;100.00
13594;BME280;6449;47.666;9.160;2023-12-04T03:19:01;97067.00;;;-1.73;100.00
13594;BME280;6449;47.666;9.160;2023-12-04T03:23:56;97067.41;;;-2.27;100.00
13594;BME280;6449;47.666;9.160;2023-12-04T03:28:49;97060.38;;;-2.19;100.00
13594;BME280;6449;47.666;9.160;2023-12-04T03:33:43;97063.41;;;-2.01;100.00
13594;BME280;6449;47.666;9.160;2023-12-04T03:38:36;97062.31;;;-1.91;100.00
13594;BME280;6449;47.666;9.160;2023-12-04T03:43:31;97057.91;;;-1.86;100.00
13594;BME280;6449;47.666;9.160;2023-12-04T03:48:24;97054.78;;;-1.99;100.00
13594;BME280;6449;47.666;9.160;2023-12-04T03:53:18;97051.69;;;-2.13;100.00
13594;BME280;6449;47.666;9.160;2023-12-04T03:58:12;97049.53;;;-1.94;100.00
13594;BME280;6449;47.666;9.160;2023-12-04T04:03:07;97047.53;;;-2.17;100.00
13594;BME280;6449;47.666;9.160;2023-12-04T04:08:02;97036.25;;;-2.12;100.00
13594;BME280;6449;47.666;9.160;2023-12-04T04:12:57;97030.78;;;-2.33;100.00
13594;BME280;6449;47.666;9.160;2023-12-04T04:17:50;97010.38;;;-2.02;100.00
13594;BME280;6449;47.666;9.160;2023-12-04T04:22:47;97008.53;;;-1.99;100.00
13594;BME280;6449;47.666;9.160;2023-12-04T04:27:40;97027.00;;;-2.19;100.00
13594;BME280;6449;47.666;9.160;2023-12-04T04:32:34;97024.81;;;-1.98;100.00
13594;BME280;6449;47.666;9.160;2023-12-04T04:37:27;97017.31;;;-2.43;100.00
13594;BME280;6449;47.666;9.160;2023-12-04T04:42:22;97007.19;;;-2.49;100.00
13594;BME280;6449;47.666;9.160;2023-12-04T04:47:16;96999.00;;;-2.67;100.00
13594;BME280;6449;47.666;9.160;2023-12-04T04:52:09;96999.47;;;-2.49;100.00
13594;BME280;6449;47.666;9.160;2023-12-04T04:57:03;96990.34;;;-2.63;100.00
13594;BME280;6449;47.666;9.160;2023-12-04T05:01:58;96985.69;;;-2.45;100.00
13594;BME280;6449;47.666;9.160;2023-12-04T05:06:51;96982.13;;;-2.38;100.00
13594;BME280;6449;47.666;9.160;2023-12-04T05:11:45;96971.22;;;-2.12;100.00
13594;BME280;6449;47.666;9.160;2023-12-04T05:16:38;96970.13;;;-2.03;100.00
13594;BME280;6449;47.666;9.160;2023-12-04T05:21:33;96963.88;;;-1.92;100.00
13594;BME280;6449;47.666;9.160;2023-12-04T05:26:26;96957.41;;;-1.74;100.00
13594;BME280;6449;47.666;9.160;2023-12-04T05:31:19;96949.41;;;-1.63;100.00
13594;BME280;6449;47.666;9.160;2023-12-04T05:36:13;96944.72;;;-1.80;100.00
13594;BME280;6449;47.666;9.160;2023-12-04T05:41:08;96956.22;;;-1.95;100.00
13594;BME280;6449;47.666;9.160;2023-12-04T05:46:01;96946.50;;;-1.83;100.00
13594;BME280;6449;47.666;9.160;2023-12-04T05:50:54;96950.88;;;-1.87;100.00
13594;BME280;6449;47.666;9.160;2023-12-04T05:55:48;96950.31;;;-1.66;100.00
13594;BME280;6449;47.666;9.160;2023-12-04T06:00:42;96938.47;;;-1.71;100.00
13594;BME280;6449;47.666;9.160;2023-12-04T06:05:36;96933.22;;;-1.67;100.00
13594;BME280;6449;47.666;9.160;2023-12-04T06:10:29;96926.22;;;-1.62;100.00
13594;BME280;6449;47.666;9.160;2023-12-04T06:15:24;96910.50;;;-1.51;100.00
13594;BME280;6449;47.666;9.160;2023-12-04T06:20:19;96894.03;;;-1.44;100.00
13594;BME280;6449;47.666;9.160;2023-12-04T06:25:14;96907.19;;;-1.54;100.00
13594;BME280;6449;47.666;9.160;2023-12-04T06:30:11;96896.91;;;-1.54;100.00
13594;BME280;6449;47.666;9.160;2023-12-04T06:35:06;96891.78;;;-1.54;100.00
13594;BME280;6449;47.666;9.160;2023-12-04T06:40:02;96880.44;;;-1.47;100.00
13594;BME280;6449;47.666;9.160;2023-12-04T06:44:57;96871.63;;;-1.40;100.00
13594;BME280;6449;47.666;9.160;2023-12-04T06:49:50;96869.66;;;-1.30;100.00
13594;BME280;6449;47.666;9.160;2023-12-04T06:54:43;96859.56;;;-1.37;100.00
13594;BME280;6449;47.666;9.160;2023-12-04T06:59:38;96840.66;;;-1.65;100.00
13594;BME280;6449;47.666;9.160;2023-12-04T07:04:31;96843.50;;;-1.74;100.00
13594;BME280;6449;47.666;9.160;2023-12-04T07:09:25;96862.81;;;-1.92;100.00
13594;BME280;6449;47.666;9.160;2023-12-04T07:14:19;96859.47;;;-1.94;100.00
13594;BME280;6449;47.666;9.160;2023-12-04T07:19:14;96868.50;;;-2.12;100.00
13594;BME280;6449;47.666;9.160;2023-12-04T07:24:08;96863.59;;;-1.89;100.00
13594;BME280;6449;47.666;9.160;2023-12-04T07:29:02;96868.53;;;-1.81;100.00
13594;BME280;6449;47.666;9.160;2023-12-04T07:33:56;96883.38;;;-1.92;100.00
13594;BME280;6449;47.666;9.160;2023-12-04T07:38:54;96858.84;;;-2.02;100.00
13594;BME280;6449;47.666;9.160;2023-12-04T07:43:47;96840.00;;;-2.03;100.00
13594;BME280;6449;47.666;9.160;2023-12-04T07:48:41;96829.16;;;-2.13;100.00
13594;BME280;6449;47.666;9.160;2023-12-04T07:53:36;96811.97;;;-2.11;100.00
13594;BME280;6449;47.666;9.160;2023-12-04T07:58:31;96812.97;;;-1.85;100.00
13594;BME280;6449;47.666;9.160;2023-12-04T08:03:24;96834.47;;;-2.20;100.00
13594;BME280;6449;47.666;9.160;2023-12-04T08:08:18;96814.47;;;-2.07;100.00
13594;BME280;6449;47.666;9.160;2023-12-04T08:13:13;96822.28;;;-1.81;100.00
13594;BME280;6449;47.666;9.160;2023-12-04T08:18:08;96805.22;;;-1.83;100.00
13594;BME280;6449;47.666;9.160;2023-12-04T08:23:01;96809.22;;;-2.04;100.00
13594;BME280;6449;47.666;9.160;2023-12-04T08:27:55;96817.81;;;-1.74;100.00
13594;BME280;6449;47.666;9.160;2023-12-04T08:32:48;96823.03;;;-2.08;100.00
13594;BME280;6449;47.666;9.160;2023-12-04T08:37:43;96808.56;;;-2.11;100.00
13594;BME280;6449;47.666;9.160;2023-12-04T08:42:37;96809.00;;;-2.28;100.00
13594;BME280;6449;47.666;9.160;2023-12-04T08:47:31;96788.44;;;-2.26;100.00
13594;BME280;6449;47.666;9.160;2023-12-04T08:52:24;96771.56;;;-1.74;100.00
13594;BME280;6449;47.666;9.160;2023-12-04T08:57:19;96815.53;;;-2.16;100.00
13594;BME280;6449;47.666;9.160;2023-12-04T09:02:12;96804.22;;;-2.09;100.00
13594;BME280;6449;47.666;9.160;2023-12-04T09:07:06;96798.00;;;-2.00;100.00
13594;BME280;6449;47.666;9.160;2023-12-04T09:12:21;96821.00;;;-1.97;100.00
13594;BME280;6449;47.666;9.160;2023-12-04T09:17:15;96834.72;;;-1.97;100.00
13594;BME280;6449;47.666;9.160;2023-12-04T09:22:08;96821.69;;;-1.91;100.00
13594;BME280;6449;47.666;9.160;2023-12-04T09:27:10;96817.72;;;-1.42;100.00
13594;BME280;6449;47.666;9.160;2023-12-04T09:32:06;96797.53;;;-1.26;100.00
13594;BME280;6449;47.666;9.160;2023-12-04T09:36:59;96788.50;;;-1.11;100.00
13594;BME280;6449;47.666;9.160;2023-12-04T09:42:02;96797.94;;;-1.40;100.00
13594;BME280;6449;47.666;9.160;2023-12-04T09:46:56;96804.97;;;-1.17;100.00
13594;BME280;6449;47.666;9.160;2023-12-04T09:51:51;96797.88;;;-1.10;100.00
13594;BME280;6449;47.666;9.160;2023-12-04T09:56:45;96801.78;;;-0.98;100.00
13594;BME280;6449;47.666;9.160;2023-12-04T10:01:40;96803.75;;;-0.80;100.00
13594;BME280;6449;47.666;9.160;2023-12-04T10:06:37;96813.41;;;-0.87;100.00
13594;BME280;6449;47.666;9.160;2023-12-04T10:11:32;96793.72;;;-1.14;100.00
13594;BME280;6449;47.666;9.160;2023-12-04T10:16:36;96783.84;;;-1.28;100.00
13594;BME280;6449;47.666;9.160;2023-12-04T10:21:32;96769.50;;;-1.35;100.00
13594;BME280;6449;47.666;9.160;2023-12-04T10:26:25;96745.19;;;-0.98;100.00
13594;BME280;6449;47.666;9.160;2023-12-04T10:31:23;96745.69;;;-1.14;100.00
13594;BME280;6449;47.666;9.160;2023-12-04T10:36:17;96736.97;;;-1.36;100.00
13594;BME280;6449;47.666;9.160;2023-12-04T10:41:14;96724.81;;;-1.31;100.00
13594;BME280;6449;47.666;9.160;2023-12-04T10:46:07;96723.16;;;-1.06;100.00
13594;BME280;6449;47.666;9.160;2023-12-04T10:51:03;96734.69;;;-0.92;100.00
13594;BME280;6449;47.666;9.160;2023-12-04T10:56:00;96736.81;;;-0.54;100.00
13594;BME280;6449;47.666;9.160;2023-12-04T11:00:56;96738.22;;;-0.70;100.00
13594;BME280;6449;47.666;9.160;2023-12-04T11:06:02;96738.56;;;-0.79;100.00
13594;BME280;6449;47.666;9.160;2023-12-04T11:11:01;96701.78;;;-0.58;100.00
13594;BME280;6449;47.666;9.160;2023-12-04T11:16:01;96683.25;;;-0.92;100.00
13594;BME280;6449;47.666;9.160;2023-12-04T11:20:59;96679.56;;;-1.10;100.00
13594;BME280;6449;47.666;9.160;2023-12-04T11:25:57;96674.81;;;-0.96;100.00
13594;BME280;6449;47.666;9.160;2023-12-04T11:30:51;96664.63;;;-0.74;100.00
13594;BME280;6449;47.666;9.160;2023-12-04T11:35:45;96647.56;;;-0.53;100.00
13594;BME280;6449;47.666;9.160;2023-12-04T11:40:40;96645.22;;;-0.36;100.00
13594;BME280;6449;47.666;9.160;2023-12-04T11:45:40;96640.63;;;-0.06;100.00
13594;BME280;6449;47.666;9.160;2023-12-04T11:50:34;96638.22;;;0.13;100.00
13594;BME280;6449;47.666;9.160;2023-12-04T11:55:27;96654.59;;;0.12;100.00
13594;BME280;6449;47.666;9.160;2023-12-04T12:00:22;96646.00;;;0.12;100.00
13594;BME280;6449;47.666;9.160;2023-12-04T12:05:19;96648.56;;;-0.10;100.00
13594;BME280;6449;47.666;9.160;2023-12-04T12:10:15;96643.69;;;-0.18;100.00
13594;BME280;6449;47.666;9.160;2023-12-04T12:15:10;96622.22;;;-0.40;100.00
13594;BME280;6449;47.666;9.160;2023-12-04T12:20:05;96624.78;;;-0.64;100.00
13594;BME280;6449;47.666;9.160;2023-12-04T12:25:00;96610.28;;;-0.43;100.00
13594;BME280;6449;47.666;9.160;2023-12-04T12:29:54;96596.69;;;-0.46;100.00
13594;BME280;6449;47.666;9.160;2023-12-04T12:34:47;96594.06;;;-0.45;100.00
13594;BME280;6449;47.666;9.160;2023-12-04T12:39:41;96580.72;;;-0.11;100.00
13594;BME280;6449;47.666;9.160;2023-12-04T12:44:40;96561.22;;;0.06;100.00
13594;BME280;6449;47.666;9.160;2023-12-04T12:49:35;96567.91;;;-0.12;100.00
13594;BME280;6449;47.666;9.160;2023-12-04T12:54:33;96573.25;;;-0.17;100.00
13594;BME280;6449;47.666;9.160;2023-12-04T12:59:27;96569.38;;;-0.05;100.00
13594;BME280;6449;47.666;9.160;2023-12-04T13:04:22;96573.38;;;0.02;100.00
13594;BME280;6449;47.666;9.160;2023-12-04T13:09:15;96571.63;;;0.03;100.00
13594;BME280;6449;47.666;9.160;2023-12-04T13:14:10;96562.75;;;0.10;100.00
13594;BME280;6449;47.666;9.160;2023-12-04T13:19:04;96546.28;;;0.14;100.00
13594;BME280;6449;47.666;9.160;2023-12-04T13:23:59;96529.84;;;0.16;100.00
13594;BME280;6449;47.666;9.160;2023-12-04T13:28:52;96530.84;;;-0.08;100.00
13594;BME280;6449;47.666;9.160;2023-12-04T13:33:45;96529.16;;;-0.09;100.00
13594;BME280;6449;47.666;9.160;2023-12-04T13:38:39;96517.53;;;-0.19;100.00
13594;BME280;6449;47.666;9.160;2023-12-04T13:43:34;96497.09;;;-0.02;100.00
13594;BME280;6449;47.666;9.160;2023-12-04T13:48:47;96485.13;;;0.17;100.00
13594;BME280;6449;47.666;9.160;2023-12-04T13:53:41;96486.81;;;0.18;100.00
13594;BME280;6449;47.666;9.160;2023-12-04T13:58:38;96476.38;;;0.01;100.00
13594;BME280;6449;47.666;9.160;2023-12-04T14:03:36;96471.75;;;-0.13;100.00
13594;BME280;6449;47.666;9.160;2023-12-04T14:08:29;96459.03;;;-0.16;100.00
13594;BME280;6449;47.666;9.160;2023-12-04T14:13:23;96449.75;;;-0.20;100.00
13594;BME280;6449;47.666;9.160;2023-12-04T14:18:20;96439.22;;;-0.36;100.00
13594;BME280;6449;47.666;9.160;2023-12-04T14:23:13;96434.34;;;-0.43;100.00
13594;BME280;6449;47.666;9.160;2023-12-04T14:28:08;96439.91;;;-0.32;100.00
13594;BME280;6449;47.666;9.160;2023-12-04T14:33:01;96442.69;;;-0.37;100.00
13594;BME280;6449;47.666;9.160;2023-12-04T14:37:56;96429.09;;;-0.40;100.00
13594;BME280;6449;47.666;9.160;2023-12-04T14:42:50;96422.25;;;-0.19;100.00
13594;BME280;6449;47.666;9.160;2023-12-04T14:47:43;96435.09;;;-0.40;100.00
13594;BME280;6449;47.666;9.160;2023-12-04T14:52:40;96423.94;;;-0.40;100.00
13594;BME280;6449;47.666;9.160;2023-12-04T14:57:44;96431.56;;;-0.37;100.00
13594;BME280;6449;47.666;9.160;2023-12-04T15:03:11;96412.22;;;-0.27;100.00
13594;BME280;6449;47.666;9.160;2023-12-04T15:08:42;96391.00;;;-0.12;100.00
13594;BME280;6449;47.666;9.160;2023-12-04T15:13:52;96379.22;;;-0.17;100.00
13594;BME280;6449;47.666;9.160;2023-12-04T15:18:53;96394.84;;;-0.22;100.00
13594;BME280;6449;47.666;9.160;2023-12-04T15:24:06;96397.19;;;-0.36;100.00
13594;BME280;6449;47.666;9.160;2023-12-04T15:29:00;96394.59;;;-0.36;100.00
13594;BME280;6449;47.666;9.160;2023-12-04T15:33:56;96375.34;;;-0.28;100.00
13594;BME280;6449;47.666;9.160;2023-12-04T15:38:49;96360.25;;;-0.15;100.00
13594;BME280;6449;47.666;9.160;2023-12-04T15:43:44;96341.56;;;-0.20;100.00
13594;BME280;6449;47.666;9.160;2023-12-04T15:48:40;96336.53;;;-0.23;100.00
13594;BME280;6449;47.666;9.160;2023-12-04T15:53:34;96333.75;;;-0.18;100.00
13594;BME280;6449;47.666;9.160;2023-12-04T15:58:27;96327.66;;;-0.16;100.00
13594;BME280;6449;47.666;9.160;2023-12-04T16:03:22;96319.72;;;-0.11;100.00
13594;BME280;6449;47.666;9.160;2023-12-04T16:08:15;96331.63;;;-0.09;100.00
13594;BME280;6449;47.666;9.160;2023-12-04T16:13:09;96328.03;;;-0.25;100.00
13594;BME280;6449;47.666;9.160;2023-12-04T16:18:03;96331.63;;;-0.09;100.00
13594;BME280;6449;47.666;9.160;2023-12-04T16:22:59;96301.63;;;-0.10;100.00
13594;BME280;6449;47.666;9.160;2023-12-04T16:27:53;96297.06;;;-0.23;100.00
13594;BME280;6449;47.666;9.160;2023-12-04T16:32:49;96284.75;;;-0.17;100.00
13594;BME280;6449;47.666;9.160;2023-12-04T16:37:44;96283.53;;;-0.08;100.00
13594;BME280;6449;47.666;9.160;2023-12-04T16:42:39;96272.94;;;-0.02;100.00
13594;BME280;6449;47.666;9.160;2023-12-04T16:47:32;96259.88;;;0.03;100.00
13594;BME280;6449;47.666;9.160;2023-12-04T16:52:26;96257.91;;;0.08;100.00
13594;BME280;6449;47.666;9.160;2023-12-04T16:57:20;96257.22;;;0.04;100.00
13594;BME280;6449;47.666;9.160;2023-12-04T17:02:15;96268.88;;;-0.27;100.00
13594;BME280;6449;47.666;9.160;2023-12-04T17:07:10;96254.56;;;-0.34;100.00
13594;BME280;6449;47.666;9.160;2023-12-04T17:12:09;96239.50;;;-0.22;100.00
13594;BME280;6449;47.666;9.160;2023-12-04T17:17:04;96239.97;;;-0.33;100.00
13594;BME280;6449;47.666;9.160;2023-12-04T17:22:03;96233.69;;;-0.28;100.00
13594;BME280;6449;47.666;9.160;2023-12-04T17:26:58;96210.47;;;-0.26;100.00
13594;BME280;6449;47.666;9.160;2023-12-04T17:31:51;96220.78;;;-0.26;100.00
13594;BME280;6449;47.666;9.160;2023-12-04T17:36:47;96220.06;;;-0.30;100.00
13594;BME280;6449;47.666;9.160;2023-12-04T17:41:44;96217.88;;;-0.39;100.00
13594;BME280;6449;47.666;9.160;2023-12-04T17:46:40;96210.13;;;-0.18;100.00
13594;BME280;6449;47.666;9.160;2023-12-04T17:51:33;96215.56;;;-0.24;100.00
13594;BME280;6449;47.666;9.160;2023-12-04T17:56:31;96227.75;;;-0.48;100.00
13594;BME280;6449;47.666;9.160;2023-12-04T18:01:27;96218.31;;;-0.29;100.00
13594;BME280;6449;47.666;9.160;2023-12-04T18:06:26;96207.56;;;-0.18;100.00
13594;BME280;6449;47.666;9.160;2023-12-04T18:11:26;96194.28;;;-0.09;100.00
13594;BME280;6449;47.666;9.160;2023-12-04T18:16:19;96183.59;;;-0.02;100.00
13594;BME280;6449;47.666;9.160;2023-12-04T18:21:21;96187.16;;;-0.04;100.00
13594;BME280;6449;47.666;9.160;2023-12-04T18:26:16;96207.94;;;-0.28;100.00
13594;BME280;6449;47.666;9.160;2023-12-04T18:31:13;96202.41;;;-0.37;100.00
13594;BME280;6449;47.666;9.160;2023-12-04T18:36:11;96203.00;;;-0.32;100.00
13594;BME280;6449;47.666;9.160;2023-12-04T18:41:08;96185.31;;;-0.40;100.00
13594;BME280;6449;47.666;9.160;2023-12-04T18:46:05;96173.78;;;-0.31;100.00
13594;BME280;6449;47.666;9.160;2023-12-04T18:51:00;96162.19;;;-0.21;100.00
13594;BME280;6449;47.666;9.160;2023-12-04T18:55:54;96161.56;;;-0.26;100.00
13594;BME280;6449;47.666;9.160;2023-12-04T19:00:48;96163.50;;;-0.12;100.00
13594;BME280;6449;47.666;9.160;2023-12-04T19:05:42;96167.81;;;-0.13;100.00
13594;BME280;6449;47.666;9.160;2023-12-04T19:10:36;96166.47;;;-0.40;100.00
13594;BME280;6449;47.666;9.160;2023-12-04T19:15:29;96161.69;;;-0.48;100.00
13594;BME280;6449;47.666;9.160;2023-12-04T19:20:27;96145.47;;;-0.31;100.00
13594;BME280;6449;47.666;9.160;2023-12-04T19:25:21;96136.06;;;-0.32;100.00
13594;BME280;6449;47.666;9.160;2023-12-04T19:30:21;96122.84;;;-0.24;100.00
13594;BME280;6449;47.666;9.160;2023-12-04T19:35:15;96123.97;;;-0.30;100.00
13594;BME280;6449;47.666;9.160;2023-12-04T19:40:14;96126.19;;;-0.41;100.00
13594;BME280;6449;47.666;9.160;2023-12-04T19:45:10;96112.59;;;-0.45;100.00
13594;BME280;6449;47.666;9.160;2023-12-04T19:50:05;96115.25;;;-0.46;100.00
13594;BME280;6449;47.666;9.160;2023-12-04T19:55:02;96115.59;;;-0.35;100.00
13594;BME280;6449;47.666;9.160;2023-12-04T19:59:57;96120.59;;;-0.32;100.00
13594;BME280;6449;47.666;9.160;2023-12-04T20:04:55;96142.59;;;-0.63;100.00
13594;BME280;6449;47.666;9.160;2023-12-04T20:09:49;96144.88;;;-0.57;100.00
13594;BME280;6449;47.666;9.160;2023-12-04T20:14:46;96152.84;;;-0.42;100.00
13594;BME280;6449;47.666;9.160;2023-12-04T20:19:43;96170.88;;;-0.23;100.00
13594;BME280;6449;47.666;9.160;2023-12-04T20:24:37;96162.81;;;-0.16;100.00
13594;BME280;6449;47.666;9.160;2023-12-04T20:29:36;96177.56;;;-0.19;100.00
13594;BME280;6449;47.666;9.160;2023-12-04T20:34:31;96167.53;;;-0.07;100.00
13594;BME280;6449;47.666;9.160;2023-12-04T20:39:30;96156.53;;;-0.10;100.00
13594;BME280;6449;47.666;9.160;2023-12-04T20:44:25;96132.88;;;0.01;100.00
13594;BME280;6449;47.666;9.160;2023-12-04T20:49:19;96087.84;;;0.08;100.00
13594;BME280;6449;47.666;9.160;2023-12-04T20:54:13;96044.16;;;0.23;100.00
13594;BME280;6449;47.666;9.160;2023-12-04T20:59:09;96060.75;;;0.35;100.00
13594;BME280;6449;47.666;9.160;2023-12-04T21:04:06;96128.16;;;0.09;100.00
13594;BME280;6449;47.666;9.160;2023-12-04T21:09:05;96170.94;;;0.13;100.00
13594;BME280;6449;47.666;9.160;2023-12-04T21:14:04;96158.25;;;0.27;100.00
13594;BME280;6449;47.666;9.160;2023-12-04T21:18:59;96178.72;;;0.30;100.00
13594;BME280;6449;47.666;9.160;2023-12-04T21:23:57;96156.50;;;0.28;100.00
13594;BME280;6449;47.666;9.160;2023-12-04T21:28:52;96164.06;;;0.31;100.00
13594;BME280;6449;47.666;9.160;2023-12-04T21:33:49;96148.56;;;0.32;100.00
13594;BME280;6449;47.666;9.160;2023-12-04T21:38:48;96122.63;;;0.35;100.00
13594;BME280;6449;47.666;9.160;2023-12-04T21:43:47;96080.03;;;0.45;100.00
13594;BME280;6449;47.666;9.160;2023-12-04T21:48:41;96159.59;;;0.17;100.00
13594;BME280;6449;47.666;9.160;2023-12-04T21:53:37;96153.22;;;0.24;100.00
13594;BME280;6449;47.666;9.160;2023-12-04T21:58:32;96148.56;;;0.32;100.00
13594;BME280;6449;47.666;9.160;2023-12-04T22:03:25;96152.84;;;0.32;100.00
13594;BME280;6449;47.666;9.160;2023-12-04T22:08:20;96138.84;;;0.37;100.00
13594;BME280;6449;47.666;9.160;2023-12-04T22:13:13;96142.91;;;0.43;100.00
13594;BME280;6449;47.666;9.160;2023-12-04T22:18:08;96142.69;;;0.29;100.00
13594;BME280;6449;47.666;9.160;2023-12-04T22:23:01;96166.94;;;0.24;100.00
13594;BME280;6449;47.666;9.160;2023-12-04T22:27:56;96180.66;;;0.25;100.00
13594;BME280;6449;47.666;9.160;2023-12-04T22:32:50;96164.84;;;0.33;100.00
13594;BME280;6449;47.666;9.160;2023-12-04T22:37:44;96151.59;;;0.40;100.00
13594;BME280;6449;47.666;9.160;2023-12-04T22:42:39;96155.09;;;0.39;100.00
13594;BME280;6449;47.666;9.160;2023-12-04T22:47:33;96161.78;;;0.43;100.00
13594;BME280;6449;47.666;9.160;2023-12-04T22:52:26;96156.16;;;0.52;100.00
13594;BME280;6449;47.666;9.160;2023-12-04T22:57:21;96164.88;;;0.50;100.00
13594;BME280;6449;47.666;9.160;2023-12-04T23:02:16;96161.09;;;0.57;100.00
13594;BME280;6449;47.666;9.160;2023-12-04T23:07:09;96161.47;;;0.49;100.00
13594;BME280;6449;47.666;9.160;2023-12-04T23:12:03;96136.53;;;0.50;100.00
13594;BME280;6449;47.666;9.160;2023-12-04T23:16:59;96147.53;;;0.54;100.00
13594;BME280;6449;47.666;9.160;2023-12-04T23:21:52;96154.50;;;0.51;100.00
13594;BME280;6449;47.666;9.160;2023-12-04T23:26:46;96179.09;;;0.59;100.00
13594;BME280;6449;47.666;9.160;2023-12-04T23:31:39;96152.09;;;0.66;100.00
13594;BME280;6449;47.666;9.160;2023-12-04T23:36:34;96153.75;;;0.67;100.00
13594;BME280;6449;47.666;9.160;2023-12-04T23:41:28;96142.75;;;0.63;100.00
13594;BME280;6449;47.666;9.160;2023-12-04T23:46:21;96148.59;;;0.67;100.00
13594;BME280;6449;47.666;9.160;2023-12-04T23:51:14;96147.91;;;0.63;100.00
13594;BME280;6449;47.666;9.160;2023-12-04T23:56:11;96144.03;;;0.55;100.00
